This is the latest recevied weather packets stored in our database for station/object IZ1RFL-3. If no packets are shown the sender has not sent any weather packets the latest 10 day(s).
| Time | Temp. | Humidity | Pressure | Rain* | Wind** | Luminosity | Snow |
|---|---|---|---|---|---|---|---|
| 1777511761 | 15° C | 65% | 1020.1 hPa | - | - | - | - |
| 1777510861 | 15° C | 63% | 1020 hPa | - | - | - | - |
| 1777509961 | 15.56° C | 61% | 1020 hPa | - | - | - | - |
| 1777509061 | 15.56° C | 61% | 1019.8 hPa | - | - | - | - |
| 1777508161 | 16.11° C | 60% | 1019.8 hPa | - | - | - | - |
| 1777507261 | 16.11° C | 60% | 1019.6 hPa | - | - | - | - |
| 1777506361 | 16.67° C | 59% | 1019.5 hPa | - | - | - | - |
| 1777505461 | 17.22° C | 58% | 1019.5 hPa | - | - | - | - |
| 1777504561 | 17.22° C | 57% | 1019.4 hPa | - | - | - | - |
| 1777503661 | 16.67° C | 58% | 1019.2 hPa | - | - | - | - |
| 1777502761 | 17.22° C | 58% | 1019 hPa | - | - | - | - |
| 1777501861 | 16.67° C | 59% | 1018.8 hPa | - | - | - | - |
| 1777500961 | 17.22° C | 59% | 1018.7 hPa | - | - | - | - |
| 1777500061 | 17.78° C | 59% | 1018.4 hPa | - | - | - | - |
| 1777499161 | 17.22° C | 59% | 1018.2 hPa | - | - | - | - |
| 1777498261 | 17.78° C | 58% | 1018.1 hPa | - | - | - | - |
| 1777497361 | 18.33° C | 55% | 1018.1 hPa | - | - | - | - |
| 1777496461 | 17.78° C | 56% | 1017.9 hPa | - | - | - | - |
| 1777495561 | 18.89° C | 53% | 1017.6 hPa | - | - | - | - |
| 1777494661 | 18.89° C | 53% | 1017.5 hPa | - | - | - | - |
| 1777493761 | 19.44° C | 50% | 1017.5 hPa | - | - | - | - |
| 1777491961 | 20.56° C | 45% | 1017.2 hPa | - | - | - | - |
| 1777491061 | 20.56° C | 45% | 1017.1 hPa | - | - | - | - |
| 1777490161 | 20.56° C | 45% | 1016.9 hPa | - | - | - | - |
| 1777489261 | 20.56° C | 45% | 1016.8 hPa | - | - | - | - |
* Rain since midnight (hover to see other rain measurements)
** Current wind speed in m/s (hover to see current wind gust speed)